Strona główna
METAR-TAF:

METAR-TAF

Lotnisko :

Port lotniczy Garoua

Garoua, Kamerun

Szerokość geograficzna: 09-20N, Długość geograficzna: 013-23E, wysokość: 242 m

Aktualna obserwacja pogody

Raport powstał 55 minut temu, godzina 13:00 UTC
Wiatr 8 kt od zachód, zmienny między południowy zachód i zachodnio-północny zachód
Temperatura 31°C
Wilgotność 63%
Ciśnienie 1011 hPa
Widzialność 10 km lub więcej
Mało chmury na wysokości 1600 ft

METAR: FKKR 211300Z 26008KT 230V300 9999 FEW016 31/23 Q1011 NOSIG

czas: 14:55 (13:55 UTC)

Prognoza

Raport powstał 8 godziny i 55 minut temu, godzina 05:00 UTC
Prognoza ważna od 21 godzina 06 UTC do 21 godzina 18 UTC
Wiatr 8 kt od zachód
Widzialność 10 km lub więcej
Mało chmury na wysokości 1600 ft

TAF: FKKR 210500Z 2106/2118 28008KT 9999 FEW016

Obserwacja i prognoza pogody dla ponad 4000 lotnisk (raport METAR i TAF).

Dostępne stacje oznaczono żółtymi i czerwonymi punktami na mapie.

Najedź kursorem aby zobaczyć nazwę stacji.

Kliknij aby zobaczyć obserwacje i prognozy pogody.

Aby zmienić mapę: kliknij na zielony przycisk z czarnym krzyżykiem, aby powiększyć; na zielony przycisk z myślnikiem, aby pomniejszyć; na zielone strzałki, aby przejść do map sąsiednich.


METAR-TAF: